Time;durP1;ratioP1;P1;durP2;ratioP2;P2;SDS_P1;SDS_P2;PMS_P1;PMS_P2;Temp;Humidity;BMP_temperature;BMP_pressure;BME280_temperature;BME280_humidity;BME280_pressure;Samples;Min_cycle;Max_cycle;Signal;HPM_P1;HPM_P2
2020/12/07 00:01:08;;;;;;;6.67;6.07;;;;;;;;;;4955161;28;20184;-75
2020/12/07 00:03:35;;;;;;;6.00;5.50;;;;;;;;;;4955433;28;20271;-77
2020/12/07 00:06:01;;;;;;;6.13;5.57;;;;;;;;;;4955339;28;20245;-77
2020/12/07 00:08:27;;;;;;;6.30;5.73;;;;;;;;;;4954028;29;20185;-77
2020/12/07 00:10:53;;;;;;;6.27;5.77;;;;;;;;;;4955423;28;20197;-79
2020/12/07 00:13:19;;;;;;;5.93;5.40;;;;;;;;;;4955205;29;20714;-78
2020/12/07 00:15:45;;;;;;;5.27;4.87;;;;;;;;;;4954836;28;20212;-77
2020/12/07 00:18:11;;;;;;;5.37;4.87;;;;;;;;;;4954403;29;20184;-79
2020/12/07 00:20:38;;;;;;;5.10;4.70;;;;;;;;;;4954610;28;20195;-77
2020/12/07 00:23:06;;;;;;;5.17;4.77;;;;;;;;;;4955310;28;20187;-78
2020/12/07 00:25:32;;;;;;;4.47;4.17;;;;;;;;;;4957515;28;20311;-77
2020/12/07 00:27:58;;;;;;;4.80;4.40;;;;;;;;;;4959161;29;20659;-77
2020/12/07 00:30:24;;;;;;;5.00;4.60;;;;;;;;;;4959315;29;20184;-77
2020/12/07 00:32:50;;;;;;;4.80;4.40;;;;;;;;;;4959013;28;20195;-78
2020/12/07 00:35:16;;;;;;;4.77;4.37;;;;;;;;;;4958806;28;20744;-77
2020/12/07 00:37:42;;;;;;;4.60;4.30;;;;;;;;;;4940229;29;20216;-77
2020/12/07 00:40:08;;;;;;;4.90;4.50;;;;;;;;;;4959047;28;20184;-77
2020/12/07 00:42:34;;;;;;;5.00;4.60;;;;;;;;;;4958697;29;20181;-76
2020/12/07 00:45:00;;;;;;;5.40;5.00;;;;;;;;;;4958877;28;20201;-77
2020/12/07 00:47:27;;;;;;;5.00;4.60;;;;;;;;;;4959496;28;20205;-77
2020/12/07 00:49:53;;;;;;;5.30;4.80;;;;;;;;;;4959052;28;20181;-78
2020/12/07 00:52:19;;;;;;;5.30;4.80;;;;;;;;;;4958596;28;20212;-76
2020/12/07 00:54:45;;;;;;;5.70;5.20;;;;;;;;;;4958462;28;20201;-78
2020/12/07 00:57:11;;;;;;;5.53;5.00;;;;;;;;;;4957210;29;20173;-78
2020/12/07 00:59:37;;;;;;;5.60;5.17;;;;;;;;;;4958652;28;20181;-77
2020/12/07 01:02:03;;;;;;;5.40;4.90;;;;;;;;;;4958316;29;20533;-76
2020/12/07 01:04:29;;;;;;;5.30;4.90;;;;;;;;;;4958223;28;20196;-76
2020/12/07 01:06:55;;;;;;;5.10;4.60;;;;;;;;;;4957198;29;20555;-76
2020/12/07 01:09:22;;;;;;;5.27;4.87;;;;;;;;;;4956650;29;20264;-77
2020/12/07 01:11:54;;;;;;;6.00;5.30;;;;;;;;;;4958094;28;20213;-76
2020/12/07 01:14:21;;;;;;;7.00;6.30;;;;;;;;;;4958674;28;20180;-77
2020/12/07 01:16:47;;;;;;;7.10;6.20;;;;;;;;;;4956827;29;20196;-78
2020/12/07 01:19:13;;;;;;;6.10;5.60;;;;;;;;;;4956973;29;20187;-77
2020/12/07 01:21:39;;;;;;;5.37;4.87;;;;;;;;;;4957286;29;20273;-78
2020/12/07 01:24:05;;;;;;;6.00;5.50;;;;;;;;;;4958196;29;20595;-78
2020/12/07 01:26:32;;;;;;;5.63;5.17;;;;;;;;;;4958409;28;20208;-77
2020/12/07 01:28:58;;;;;;;5.50;5.07;;;;;;;;;;4956773;29;20192;-77
2020/12/07 01:31:24;;;;;;;5.47;4.97;;;;;;;;;;4958325;28;20220;-77
2020/12/07 01:33:51;;;;;;;5.27;4.87;;;;;;;;;;4957899;28;20224;-77
2020/12/07 01:36:18;;;;;;;5.70;5.20;;;;;;;;;;4957134;28;20208;-77
2020/12/07 01:38:44;;;;;;;5.20;4.80;;;;;;;;;;4956738;29;20702;-77
2020/12/07 01:41:10;;;;;;;5.27;4.83;;;;;;;;;;4956508;29;20212;-78
2020/12/07 01:43:36;;;;;;;5.70;5.20;;;;;;;;;;4958314;28;20198;-77
2020/12/07 01:46:02;;;;;;;5.73;5.23;;;;;;;;;;4957666;28;20209;-79
2020/12/07 01:48:29;;;;;;;4.90;4.50;;;;;;;;;;4956897;29;20536;-77
2020/12/07 01:50:55;;;;;;;4.90;4.50;;;;;;;;;;4957579;28;20576;-77
2020/12/07 01:53:22;;;;;;;5.60;5.10;;;;;;;;;;4958060;28;20190;-78
2020/12/07 01:55:53;;;;;;;5.03;4.63;;;;;;;;;;4956405;28;20224;-77
2020/12/07 01:58:19;;;;;;;5.10;4.70;;;;;;;;;;4957645;29;20193;-79
2020/12/07 02:00:46;;;;;;;5.30;4.80;;;;;;;;;;4958024;28;20205;-78
2020/12/07 02:03:12;;;;;;;4.80;4.40;;;;;;;;;;4957264;28;20241;-78
2020/12/07 02:05:38;;;;;;;4.50;4.20;;;;;;;;;;4957402;28;20612;-78
2020/12/07 02:08:11;;;;;;;4.20;3.73;;;;;;;;;;4957442;29;20218;-78
2020/12/07 02:10:37;;;;;;;4.87;4.37;;;;;;;;;;4957311;28;20212;-77
2020/12/07 02:13:04;;;;;;;4.43;4.13;;;;;;;;;;4957248;28;20192;-78
2020/12/07 02:15:30;;;;;;;4.63;4.33;;;;;;;;;;4950937;28;20226;-77
2020/12/07 02:17:56;;;;;;;5.20;4.80;;;;;;;;;;4948799;29;20181;-78
2020/12/07 02:20:23;;;;;;;5.10;4.70;;;;;;;;;;4957209;28;20188;-77
2020/12/07 02:22:50;;;;;;;4.97;4.57;;;;;;;;;;4957694;28;20204;-78
2020/12/07 02:25:19;;;;;;;4.57;4.27;;;;;;;;;;4957134;28;20205;-77
2020/12/07 02:27:47;;;;;;;7.87;5.57;;;;;;;;;;4956886;28;20651;-78
2020/12/07 02:30:15;;;;;;;5.67;5.17;;;;;;;;;;4957087;29;20174;-77
2020/12/07 02:32:41;;;;;;;5.07;4.67;;;;;;;;;;4956880;29;20181;-78
2020/12/07 02:35:07;;;;;;;4.50;4.20;;;;;;;;;;4957113;28;20212;-77
2020/12/07 02:37:33;;;;;;;4.20;3.80;;;;;;;;;;4955737;29;20216;-77
2020/12/07 02:39:59;;;;;;;4.60;4.23;;;;;;;;;;4955670;29;20169;-78
2020/12/07 02:42:25;;;;;;;4.67;4.27;;;;;;;;;;4957002;28;20220;-77
2020/12/07 02:44:51;;;;;;;4.90;4.60;;;;;;;;;;4951186;29;20696;-78
2020/12/07 02:47:17;;;;;;;4.23;3.93;;;;;;;;;;4947538;28;20196;-77
2020/12/07 02:49:43;;;;;;;5.00;4.70;;;;;;;;;;4956914;28;20232;-78
2020/12/07 02:52:10;;;;;;;4.53;4.13;;;;;;;;;;4956805;29;20335;-78
2020/12/07 02:54:37;;;;;;;4.63;4.33;;;;;;;;;;4943648;28;20213;-78
2020/12/07 02:57:03;;;;;;;4.33;4.03;;;;;;;;;;4956749;28;20640;-78
2020/12/07 02:59:29;;;;;;;4.30;4.00;;;;;;;;;;4956657;28;20314;-77
2020/12/07 03:01:56;;;;;;;4.97;4.57;;;;;;;;;;4956566;28;20680;-77
2020/12/07 03:04:22;;;;;;;4.43;4.13;;;;;;;;;;4950466;28;20185;-78
2020/12/07 03:06:49;;;;;;;4.37;4.07;;;;;;;;;;4956520;28;20177;-77
2020/12/07 03:09:15;;;;;;;4.43;4.13;;;;;;;;;;4955640;29;20197;-78
2020/12/07 03:11:41;;;;;;;5.03;4.63;;;;;;;;;;4956494;28;20229;-78
2020/12/07 03:14:07;;;;;;;4.77;4.40;;;;;;;;;;4956540;29;20177;-77
2020/12/07 03:16:34;;;;;;;5.13;4.73;;;;;;;;;;4958818;28;20204;-78
2020/12/07 03:19:01;;;;;;;5.33;4.87;;;;;;;;;;4953920;28;20181;-78
2020/12/07 03:21:27;;;;;;;5.70;5.20;;;;;;;;;;4962203;28;20192;-77
2020/12/07 03:23:53;;;;;;;4.60;4.30;;;;;;;;;;4941438;28;20181;-77
2020/12/07 03:26:20;;;;;;;5.27;4.87;;;;;;;;;;4956728;28;20204;-78
2020/12/07 03:28:46;;;;;;;5.03;4.63;;;;;;;;;;4956217;28;20655;-78
2020/12/07 03:31:13;;;;;;;5.60;5.10;;;;;;;;;;4955316;28;20337;-78
2020/12/07 03:33:39;;;;;;;8.63;7.63;;;;;;;;;;4956409;28;20207;-78
2020/12/07 03:36:05;;;;;;;7.40;6.67;;;;;;;;;;4954444;28;20580;-77
2020/12/07 03:38:31;;;;;;;7.30;6.70;;;;;;;;;;4954848;29;20185;-77
2020/12/07 03:40:58;;;;;;;7.07;6.37;;;;;;;;;;4956620;28;20189;-78
2020/12/07 03:43:24;;;;;;;11.63;6.33;;;;;;;;;;4956286;28;20191;-77
2020/12/07 03:45:51;;;;;;;7.53;6.73;;;;;;;;;;4955013;28;20296;-78
2020/12/07 03:48:17;;;;;;;6.73;6.03;;;;;;;;;;4956063;28;20173;-78
2020/12/07 03:50:43;;;;;;;6.43;5.83;;;;;;;;;;4954644;29;20292;-78
2020/12/07 03:53:10;;;;;;;6.37;5.87;;;;;;;;;;4956158;28;20212;-78
2020/12/07 03:55:36;;;;;;;7.27;5.87;;;;;;;;;;4955938;28;20204;-78
2020/12/07 03:58:02;;;;;;;5.80;5.30;;;;;;;;;;4955655;28;20185;-77
2020/12/07 04:00:28;;;;;;;6.43;5.83;;;;;;;;;;4956301;28;20192;-78
2020/12/07 04:02:55;;;;;;;6.33;5.83;;;;;;;;;;4956173;29;20180;-77
2020/12/07 04:05:29;;;;;;;9.90;6.40;;;;;;;;;;4955442;28;20196;-78
2020/12/07 04:07:55;;;;;;;11.37;7.70;;;;;;;;;;4956085;28;20648;-77
2020/12/07 04:10:21;;;;;;;120.77;28.60;;;;;;;;;;4954240;29;20185;-77
2020/12/07 04:12:47;;;;;;;57.47;16.30;;;;;;;;;;4955805;28;20184;-78
2020/12/07 04:15:14;;;;;;;13.37;7.70;;;;;;;;;;4982523;23;20231;-78
2020/12/07 04:17:40;;;;;;;17.17;9.60;;;;;;;;;;4966969;28;20169;-78
2020/12/07 04:20:06;;;;;;;16.33;8.03;;;;;;;;;;4968351;28;20168;-78
2020/12/07 04:22:32;;;;;;;31.03;12.37;;;;;;;;;;4975538;28;20168;-78
2020/12/07 04:24:58;;;;;;;27.40;10.60;;;;;;;;;;4972890;28;20267;-78
2020/12/07 04:27:24;;;;;;;163.20;37.47;;;;;;;;;;4954958;29;20592;-79
2020/12/07 04:29:51;;;;;;;39.80;15.47;;;;;;;;;;4956118;28;20640;-78
2020/12/07 04:32:17;;;;;;;26.17;11.20;;;;;;;;;;4955146;29;20296;-78
2020/12/07 04:34:44;;;;;;;26.27;11.13;;;;;;;;;;4955833;28;20780;-79
2020/12/07 04:37:10;;;;;;;12.17;8.00;;;;;;;;;;4956061;28;20219;-78
2020/12/07 04:39:36;;;;;;;6.70;6.10;;;;;;;;;;4956313;28;20285;-79
2020/12/07 04:42:02;;;;;;;6.27;5.77;;;;;;;;;;4956815;28;20251;-78
2020/12/07 04:44:28;;;;;;;6.40;5.90;;;;;;;;;;4956815;28;20184;-79
2020/12/07 04:46:55;;;;;;;6.20;5.70;;;;;;;;;;4956583;28;20213;-78
2020/12/07 04:49:21;;;;;;;6.30;5.70;;;;;;;;;;4956597;28;20181;-78
2020/12/07 04:51:49;;;;;;;6.97;6.37;;;;;;;;;;4956271;28;20212;-77
2020/12/07 04:54:16;;;;;;;6.83;6.23;;;;;;;;;;4955474;29;20178;-77
2020/12/07 04:56:42;;;;;;;6.80;6.20;;;;;;;;;;4954648;28;20207;-78
2020/12/07 04:59:09;;;;;;;6.20;5.70;;;;;;;;;;4956488;29;20181;-78
2020/12/07 05:01:35;;;;;;;6.60;6.10;;;;;;;;;;4952954;28;20240;-79
2020/12/07 05:04:01;;;;;;;23.13;13.53;;;;;;;;;;4955601;28;20185;-79
2020/12/07 05:06:40;;;;;;;;;;;;;;;;;;;;;
2020/12/07 05:09:06;;;;;;;10.80;9.13;;;;;;;;;;4955998;29;20191;-78
2020/12/07 05:11:32;;;;;;;8.27;7.47;;;;;;;;;;4957032;28;20197;-78
2020/12/07 05:14:09;;;;;;;8.20;7.40;;;;;;;;;;4959668;29;20181;-79
2020/12/07 05:16:35;;;;;;;7.80;7.10;;;;;;;;;;4958088;28;20208;-78
2020/12/07 05:19:01;;;;;;;6.60;6.10;;;;;;;;;;4959623;28;20173;-78
2020/12/07 05:21:28;;;;;;;6.53;6.03;;;;;;;;;;4959559;29;20192;-78
2020/12/07 05:23:54;;;;;;;7.03;6.43;;;;;;;;;;4957892;29;20190;-78
2020/12/07 05:26:22;;;;;;;7.93;7.23;;;;;;;;;;4958585;28;20252;-78
2020/12/07 05:28:51;;;;;;;9.97;8.97;;;;;;;;;;4958730;28;20212;-78
2020/12/07 05:31:24;;;;;;;9.30;8.50;;;;;;;;;;4958457;28;20196;-78
2020/12/07 05:33:50;;;;;;;9.23;8.23;;;;;;;;;;4958063;28;20180;-79
2020/12/07 05:36:17;;;;;;;9.17;8.37;;;;;;;;;;4959145;28;20563;-78
2020/12/07 05:38:44;;;;;;;9.17;8.37;;;;;;;;;;4959806;28;20193;-78
2020/12/07 05:41:11;;;;;;;10.27;9.27;;;;;;;;;;4959112;29;20188;-78
2020/12/07 05:43:37;;;;;;;9.00;8.13;;;;;;;;;;4959578;28;20181;-78
2020/12/07 05:46:04;;;;;;;13.03;9.60;;;;;;;;;;4958024;28;20212;-77
2020/12/07 05:48:31;;;;;;;9.77;8.57;;;;;;;;;;4959062;29;20177;-78
2020/12/07 05:51:01;;;;;;;9.37;8.47;;;;;;;;;;4961957;28;20205;-78
2020/12/07 05:53:27;;;;;;;8.27;7.47;;;;;;;;;;4959521;29;20233;-79
2020/12/07 05:55:54;;;;;;;9.10;8.17;;;;;;;;;;4960454;28;20284;-78
2020/12/07 05:58:21;;;;;;;8.77;8.03;;;;;;;;;;4960390;29;20229;-78
2020/12/07 06:00:47;;;;;;;8.00;7.30;;;;;;;;;;4960139;28;20184;-78
2020/12/07 06:03:16;;;;;;;10.43;8.77;;;;;;;;;;4957648;29;20565;-78
2020/12/07 06:05:42;;;;;;;9.00;8.27;;;;;;;;;;4958360;28;20245;-78
2020/12/07 06:08:12;;;;;;;8.97;8.10;;;;;;;;;;4958567;29;20197;-80
2020/12/07 06:10:41;;;;;;;8.53;7.83;;;;;;;;;;4959233;28;20237;-79
2020/12/07 06:13:12;;;;;;;8.87;8.07;;;;;;;;;;4958238;28;20260;-78
2020/12/07 06:15:43;;;;;;;10.73;9.63;;;;;;;;;;4959158;28;20272;-78
2020/12/07 06:18:21;;;;;;;9.60;8.70;;;;;;;;;;4958667;29;20261;-77
2020/12/07 06:20:47;;;;;;;9.87;9.03;;;;;;;;;;4960029;28;20220;-78
2020/12/07 06:23:17;;;;;;;11.03;10.00;;;;;;;;;;4959282;28;20189;-76
2020/12/07 06:25:43;;;;;;;10.73;9.73;;;;;;;;;;4960019;28;20213;-78
2020/12/07 06:28:09;;;;;;;10.67;9.67;;;;;;;;;;4960514;28;20177;-78
2020/12/07 06:30:37;;;;;;;10.97;9.87;;;;;;;;;;4960102;28;20177;-80
2020/12/07 06:33:07;;;;;;;10.13;9.13;;;;;;;;;;4957686;29;20232;-79
2020/12/07 06:35:40;;;;;;;16.80;15.10;;;;;;;;;;4957378;28;20213;-79
2020/12/07 06:38:06;;;;;;;12.20;11.10;;;;;;;;;;4958093;28;20170;-78
2020/12/07 06:40:35;;;;;;;13.03;11.73;;;;;;;;;;4956513;29;20267;-78
2020/12/07 06:43:14;;;;;;;12.40;11.20;;;;;;;;;;4957853;29;20534;-77
2020/12/07 06:45:40;;;;;;;12.63;11.43;;;;;;;;;;4956968;28;20209;-78
2020/12/07 06:48:07;;;;;;;12.97;9.50;;;;;;;;;;4957112;29;20262;-78
2020/12/07 06:50:38;;;;;;;12.20;9.80;;;;;;;;;;4958336;28;20176;-78
2020/12/07 06:53:18;;;;;;;11.47;10.37;;;;;;;;;;4958626;28;20607;-78
2020/12/07 06:55:44;;;;;;;11.13;9.70;;;;;;;;;;4957311;28;20201;-79
2020/12/07 06:58:10;;;;;;;13.03;11.47;;;;;;;;;;4958000;28;20184;-79
2020/12/07 07:00:36;;;;;;;17.57;12.70;;;;;;;;;;4958585;29;20181;-78
2020/12/07 07:03:02;;;;;;;15.87;12.63;;;;;;;;;;4956796;29;20206;-78
2020/12/07 07:05:30;;;;;;;17.27;12.90;;;;;;;;;;4958640;28;20185;-78
2020/12/07 07:07:56;;;;;;;16.67;12.53;;;;;;;;;;4958105;28;20232;-78
2020/12/07 07:10:23;;;;;;;16.40;12.00;;;;;;;;;;4957543;29;20180;-79
2020/12/07 07:12:49;;;;;;;16.70;12.93;;;;;;;;;;4956661;28;20185;-78
2020/12/07 07:15:16;;;;;;;17.70;11.93;;;;;;;;;;4957668;28;20228;-78
2020/12/07 07:17:43;;;;;;;18.87;12.50;;;;;;;;;;4957566;28;20529;-77
2020/12/07 07:20:11;;;;;;;17.27;12.80;;;;;;;;;;4957292;28;20256;-78
2020/12/07 07:22:42;;;;;;;16.47;12.33;;;;;;;;;;4957861;28;20185;-79
2020/12/07 07:30:26;;;;;;;18.30;12.80;;;;;;;;;;4957207;29;20278;-77
2020/12/07 07:32:53;;;;;;;16.27;12.13;;;;;;;;;;4956962;28;20176;-77
2020/12/07 07:35:20;;;;;;;18.87;13.17;;;;;;;;;;4956675;28;20208;-78
2020/12/07 07:37:47;;;;;;;17.17;13.23;;;;;;;;;;4956962;29;20265;-78
2020/12/07 07:40:15;;;;;;;16.13;12.50;;;;;;;;;;4956782;28;20169;-78
2020/12/07 07:42:44;;;;;;;20.23;13.47;;;;;;;;;;4957669;28;20261;-78
2020/12/07 07:45:11;;;;;;;18.77;11.77;;;;;;;;;;4955819;28;20577;-77
2020/12/07 08:06:11;;;;;;;17.73;13.87;;;;;;;;;;4958825;29;20260;-79
2020/12/07 08:17:17;;;;;;;22.43;13.67;;;;;;;;;;4956024;29;20239;-79
2020/12/07 08:19:46;;;;;;;22.20;14.73;;;;;;;;;;4956543;29;20555;-79
2020/12/07 08:22:20;;;;;;;18.20;13.97;;;;;;;;;;4955382;29;20628;-78
2020/12/07 08:24:50;;;;;;;16.27;13.13;;;;;;;;;;4957297;28;20181;-78
2020/12/07 08:27:16;;;;;;;17.27;12.37;;;;;;;;;;4956885;29;20245;-79
2020/12/07 08:29:42;;;;;;;13.60;11.93;;;;;;;;;;4956618;29;20185;-79
2020/12/07 08:32:20;;;;;;;15.37;11.70;;;;;;;;;;4956547;28;20668;-78
2020/12/07 08:34:46;;;;;;;19.93;13.40;;;;;;;;;;4956516;28;20180;-79
2020/12/07 08:37:12;;;;;;;165.67;66.10;;;;;;;;;;4956867;28;20652;-79
2020/12/07 08:39:38;;;;;;;57.37;30.60;;;;;;;;;;4955294;29;20173;-79
2020/12/07 08:42:05;;;;;;;30.23;17.30;;;;;;;;;;4954901;29;20276;-79
2020/12/07 08:44:31;;;;;;;19.87;15.13;;;;;;;;;;4956696;28;20185;-79
2020/12/07 08:46:58;;;;;;;15.50;11.20;;;;;;;;;;4959511;28;20205;-78
2020/12/07 08:49:25;;;;;;;16.37;11.20;;;;;;;;;;4959756;28;20186;-79
2020/12/07 08:51:53;;;;;;;10.90;9.87;;;;;;;;;;4960381;28;20260;-79
2020/12/07 08:54:19;;;;;;;9.60;8.70;;;;;;;;;;4959411;29;20552;-79
2020/12/07 08:56:47;;;;;;;11.73;9.03;;;;;;;;;;4960447;28;20288;-79
2020/12/07 08:59:15;;;;;;;9.93;8.93;;;;;;;;;;4960455;28;20232;-79
2020/12/07 09:01:41;;;;;;;9.70;8.70;;;;;;;;;;4960776;29;20175;-78
2020/12/07 09:04:10;;;;;;;7.00;6.40;;;;;;;;;;4960397;28;20248;-79
2020/12/07 09:06:39;;;;;;;8.30;7.50;;;;;;;;;;4959768;28;20738;-78
2020/12/07 09:09:06;;;;;;;9.33;8.43;;;;;;;;;;4959908;29;20181;-79
2020/12/07 09:11:32;;;;;;;9.07;8.20;;;;;;;;;;4958505;28;20767;-78
2020/12/07 09:13:59;;;;;;;8.63;7.73;;;;;;;;;;4959882;28;20536;-79
2020/12/07 09:16:25;;;;;;;9.40;8.50;;;;;;;;;;4959545;28;20216;-78
2020/12/07 09:18:52;;;;;;;10.17;9.13;;;;;;;;;;4960060;28;20177;-79
2020/12/07 09:21:18;;;;;;;10.67;9.63;;;;;;;;;;4958750;29;20193;-77
2020/12/07 09:23:45;;;;;;;10.57;9.00;;;;;;;;;;4958291;29;20185;-79
2020/12/07 09:26:11;;;;;;;16.20;14.60;;;;;;;;;;4958388;28;20208;-79
2020/12/07 09:28:37;;;;;;;14.30;11.80;;;;;;;;;;4959555;28;20736;-78
2020/12/07 09:31:04;;;;;;;15.67;12.60;;;;;;;;;;4959075;28;20201;-79
2020/12/07 09:33:30;;;;;;;12.93;10.67;;;;;;;;;;4959644;29;20177;-79
2020/12/07 09:35:56;;;;;;;13.47;10.40;;;;;;;;;;4959086;28;20256;-79
2020/12/07 09:38:23;;;;;;;10.23;9.33;;;;;;;;;;4959635;28;20196;-79
2020/12/07 09:40:50;;;;;;;10.60;9.50;;;;;;;;;;4959632;28;20272;-78
2020/12/07 09:43:16;;;;;;;11.87;10.60;;;;;;;;;;4959440;28;20683;-78
2020/12/07 09:45:43;;;;;;;11.57;10.37;;;;;;;;;;4959618;28;20287;-78
2020/12/07 09:48:09;;;;;;;10.20;9.30;;;;;;;;;;4959031;28;20185;-79
2020/12/07 09:50:35;;;;;;;10.03;9.13;;;;;;;;;;4958869;28;20173;-78
2020/12/07 09:53:05;;;;;;;8.73;7.93;;;;;;;;;;4959406;28;20651;-78
2020/12/07 09:55:31;;;;;;;10.67;8.53;;;;;;;;;;4959028;28;20277;-78
2020/12/07 09:57:57;;;;;;;10.33;9.30;;;;;;;;;;4957923;28;20212;-79
2020/12/07 10:00:24;;;;;;;9.47;8.53;;;;;;;;;;4959352;28;20273;-79
2020/12/07 10:02:50;;;;;;;9.20;8.30;;;;;;;;;;4957672;29;20656;-78
2020/12/07 10:05:16;;;;;;;16.07;12.70;;;;;;;;;;4957294;28;20212;-79
2020/12/07 10:07:43;;;;;;;10.33;9.10;;;;;;;;;;4959036;29;20212;-79
2020/12/07 10:10:09;;;;;;;11.03;9.80;;;;;;;;;;4958554;29;20685;-78
2020/12/07 10:12:35;;;;;;;10.03;9.03;;;;;;;;;;4957973;28;20228;-78
2020/12/07 10:15:02;;;;;;;9.87;8.97;;;;;;;;;;4958317;28;20209;-78
2020/12/07 10:23:45;;;;;;;11.87;10.70;;;;;;;;;;4955709;28;20260;-81
2020/12/07 10:26:24;;;;;;;11.80;10.60;;;;;;;;;;4980169;28;20288;-81
2020/12/07 10:29:04;;;;;;;11.73;10.63;;;;;;;;;;4962465;29;20268;-80
2020/12/07 10:31:36;;;;;;;12.63;10.10;;;;;;;;;;4964938;29;20687;-80
2020/12/07 10:34:14;;;;;;;12.37;10.80;;;;;;;;;;4962385;28;20327;-81
2020/12/07 10:36:50;;;;;;;14.43;11.50;;;;;;;;;;4962518;28;20197;-81
2020/12/07 10:39:19;;;;;;;13.77;11.90;;;;;;;;;;4970190;28;20185;-81
2020/12/07 10:41:54;;;;;;;13.63;12.13;;;;;;;;;;4963363;29;20243;-80
2020/12/07 10:44:23;;;;;;;16.70;13.27;;;;;;;;;;4962849;28;20206;-79
2020/12/07 10:47:03;;;;;;;16.27;13.30;;;;;;;;;;4960300;28;20201;-79
2020/12/07 10:49:32;;;;;;;16.77;12.30;;;;;;;;;;4960860;29;20191;-80
2020/12/07 10:52:18;;;;;;;15.50;12.40;;;;;;;;;;4962731;29;20349;-80
2020/12/07 10:57:51;;;;;;;12.63;11.43;;;;;;;;;;4942516;28;20213;-79
2020/12/07 11:00:17;;;;;;;12.47;11.17;;;;;;;;;;4962033;29;20185;-79
2020/12/07 11:02:48;;;;;;;13.73;12.23;;;;;;;;;;4963387;28;20208;-80
2020/12/07 11:05:14;;;;;;;12.83;11.53;;;;;;;;;;4962883;29;20177;-79
2020/12/07 11:07:55;;;;;;;13.20;11.70;;;;;;;;;;4963817;28;20695;-80
2020/12/07 11:10:32;;;;;;;11.67;10.47;;;;;;;;;;4962117;29;20632;-78
2020/12/07 11:13:11;;;;;;;12.00;10.80;;;;;;;;;;4955753;29;20183;-80
2020/12/07 11:16:01;;;;;;;10.97;9.87;;;;;;;;;;4960466;29;20264;-79
2020/12/07 11:18:36;;;;;;;10.80;9.70;;;;;;;;;;4962386;28;20201;-78
2020/12/07 11:21:22;;;;;;;11.40;10.20;;;;;;;;;;4964375;28;20223;-79
2020/12/07 11:23:57;;;;;;;11.00;9.90;;;;;;;;;;4964946;28;20260;-79
2020/12/07 11:29:41;;;;;;;11.30;10.13;;;;;;;;;;4949139;29;20209;-79
2020/12/07 11:32:30;;;;;;;;;;;;;;;;;;;;;
2020/12/07 11:35:33;;;;;;;11.20;9.93;;;;;;;;;;4962338;29;20260;-80
2020/12/07 11:38:14;;;;;;;14.90;11.63;;;;;;;;;;4963878;28;20197;-80
2020/12/07 11:47:27;;;;;;;;;;;;;;;;;;;;;
2020/12/07 11:50:15;;;;;;;10.33;9.33;;;;;;;;;;4941520;29;20612;-79
2020/12/07 11:53:04;;;;;;;;;;;;;;;;;;;;;
2020/12/07 11:59:34;;;;;;;;;;;;;;;;;;;;;
2020/12/07 12:02:28;;;;;;;22.83;15.47;;;;;;;;;;4948217;29;20252;-80
2020/12/07 12:05:18;;;;;;;13.90;11.30;;;;;;;;;;4965628;28;20185;-80
2020/12/07 12:07:50;;;;;;;16.77;11.00;;;;;;;;;;4959934;28;20213;-80
2020/12/07 12:10:29;;;;;;;9.73;8.83;;;;;;;;;;4962546;29;20197;-80
2020/12/07 12:13:33;;;;;;;10.33;9.23;;;;;;;;;;4953459;29;20205;-80
2020/12/07 12:16:39;;;;;;;;;;;;;;;;;;;;;
2020/12/07 12:19:43;;;;;;;;;;;;;;;;;;;;;
2020/12/07 12:22:39;;;;;;;;;;;;;;;;;;;;;
2020/12/07 12:37:03;;;;;;;11.43;10.33;;;;;;;;;;4954689;28;20189;-79
2020/12/07 12:42:55;;;;;;;;;;;;;;;;;;;;;
2020/12/07 12:45:57;;;;;;;10.53;9.53;;;;;;;;;;4964820;29;20256;-79
2020/12/07 12:48:36;;;;;;;11.17;9.50;;;;;;;;;;4926453;29;20181;-79
2020/12/07 12:51:02;;;;;;;11.27;10.07;;;;;;;;;;4949731;29;20296;-76
2020/12/07 12:53:29;;;;;;;10.10;9.17;;;;;;;;;;4950125;28;20594;-77
2020/12/07 12:55:56;;;;;;;9.83;8.93;;;;;;;;;;4951846;29;20236;-76
2020/12/07 12:58:22;;;;;;;11.93;9.63;;;;;;;;;;4956086;29;20602;-76
2020/12/07 13:00:48;;;;;;;19.90;13.73;;;;;;;;;;4957705;29;20177;-77
2020/12/07 13:03:16;;;;;;;100.63;39.50;;;;;;;;;;4958774;28;20194;-76
2020/12/07 13:05:42;;;;;;;11.57;10.37;;;;;;;;;;4958671;28;20166;-77
2020/12/07 13:08:08;;;;;;;37.33;19.13;;;;;;;;;;4947368;28;20198;-77
2020/12/07 13:10:35;;;;;;;33.70;17.90;;;;;;;;;;4959239;28;20597;-77
2020/12/07 13:13:01;;;;;;;30.10;18.33;;;;;;;;;;4959401;29;20675;-77
2020/12/07 13:15:29;;;;;;;12.77;10.43;;;;;;;;;;4956455;29;20276;-76
2020/12/07 13:18:06;;;;;;;12.57;11.00;;;;;;;;;;4957020;28;20253;-76
2020/12/07 13:21:22;;;;;;;12.57;11.27;;;;;;;;;;4958800;28;20201;-76
2020/12/07 13:28:23;;;;;;;14.87;11.50;;;;;;;;;;4956715;29;20309;-76
2020/12/07 13:30:49;;;;;;;11.80;10.67;;;;;;;;;;4956211;28;20771;-76
2020/12/07 13:33:15;;;;;;;12.63;10.17;;;;;;;;;;4957593;28;20177;-77
2020/12/07 13:35:42;;;;;;;11.43;10.27;;;;;;;;;;4957514;29;20204;-78
2020/12/07 13:38:09;;;;;;;12.80;11.47;;;;;;;;;;4958054;29;20284;-77
2020/12/07 13:40:36;;;;;;;13.50;10.40;;;;;;;;;;4958776;28;20177;-76
2020/12/07 13:43:03;;;;;;;13.03;11.60;;;;;;;;;;4958392;28;20249;-77
2020/12/07 13:45:30;;;;;;;13.13;11.70;;;;;;;;;;4958955;28;20178;-77
2020/12/07 13:47:56;;;;;;;15.53;13.63;;;;;;;;;;4958423;28;20574;-76
2020/12/07 13:50:23;;;;;;;17.87;12.83;;;;;;;;;;4958086;29;20177;-77
2020/12/07 13:52:49;;;;;;;16.30;13.07;;;;;;;;;;4957462;29;20267;-76
2020/12/07 13:55:15;;;;;;;13.07;11.70;;;;;;;;;;4955725;28;20181;-76
2020/12/07 13:57:44;;;;;;;14.60;12.53;;;;;;;;;;4957740;28;20208;-76
2020/12/07 14:00:10;;;;;;;13.00;11.33;;;;;;;;;;4956053;29;20181;-76
2020/12/07 14:02:36;;;;;;;13.33;11.63;;;;;;;;;;4940563;29;20185;-76
2020/12/07 14:05:04;;;;;;;14.33;12.03;;;;;;;;;;4957382;29;20194;-76
2020/12/07 14:07:30;;;;;;;13.37;11.63;;;;;;;;;;4956104;29;20205;-76
2020/12/07 14:09:57;;;;;;;13.20;11.80;;;;;;;;;;4957373;28;20193;-76
2020/12/07 14:12:24;;;;;;;14.23;11.17;;;;;;;;;;4958349;28;20255;-76
2020/12/07 14:14:50;;;;;;;13.23;11.93;;;;;;;;;;4957432;28;20237;-76
2020/12/07 14:17:21;;;;;;;14.03;11.43;;;;;;;;;;4957211;28;20204;-74
2020/12/07 14:30:56;;;;;;;15.60;12.63;;;;;;;;;;4956974;29;20566;-76
2020/12/07 14:39:32;;;;;;;15.37;13.23;;;;;;;;;;4956683;29;20200;-75
2020/12/07 14:41:55;;;;;;;18.13;13.60;;;;;;;;;;4954408;29;20189;-76
2020/12/07 14:44:22;;;;;;;15.83;13.67;;;;;;;;;;4955920;28;20264;-76
2020/12/07 14:46:49;;;;;;;18.10;14.30;;;;;;;;;;4956589;28;20213;-77
2020/12/07 14:49:15;;;;;;;23.33;16.50;;;;;;;;;;4956361;29;20189;-77
2020/12/07 14:51:46;;;;;;;21.53;17.13;;;;;;;;;;4957064;29;20214;-77
2020/12/07 14:54:17;;;;;;;21.77;16.03;;;;;;;;;;4956799;28;20181;-77
2020/12/07 14:57:38;;;;;;;19.03;15.20;;;;;;;;;;4956442;28;20212;-77
2020/12/07 15:15:53;;;;;;;20.63;15.50;;;;;;;;;;4934504;29;20265;-77
2020/12/07 15:18:19;;;;;;;15.57;13.87;;;;;;;;;;4951630;28;20236;-77
2020/12/07 15:20:45;;;;;;;15.67;13.13;;;;;;;;;;4955705;28;20285;-77
2020/12/07 15:23:11;;;;;;;15.83;12.63;;;;;;;;;;4954718;29;20179;-77
2020/12/07 15:25:38;;;;;;;18.57;14.60;;;;;;;;;;4954946;29;20185;-76
2020/12/07 15:28:04;;;;;;;14.60;13.10;;;;;;;;;;4955718;28;20198;-77
2020/12/07 15:30:31;;;;;;;16.30;14.03;;;;;;;;;;4956008;28;20185;-76
2020/12/07 15:32:57;;;;;;;15.30;13.70;;;;;;;;;;4955598;29;20233;-77
2020/12/07 15:35:23;;;;;;;15.63;13.60;;;;;;;;;;4955306;29;20231;-78
2020/12/07 15:37:49;;;;;;;16.20;12.77;;;;;;;;;;4956685;28;20674;-77
2020/12/07 15:40:15;;;;;;;13.93;12.50;;;;;;;;;;4955662;28;20220;-77
2020/12/07 15:42:41;;;;;;;13.30;11.90;;;;;;;;;;4956319;28;20217;-76
2020/12/07 15:45:08;;;;;;;14.07;12.57;;;;;;;;;;4956718;29;20188;-77
2020/12/07 15:47:34;;;;;;;14.40;12.90;;;;;;;;;;4956062;28;20197;-77
2020/12/07 15:50:01;;;;;;;12.50;11.27;;;;;;;;;;4956339;28;20228;-76
2020/12/07 15:52:28;;;;;;;14.13;12.63;;;;;;;;;;4955406;28;20229;-75
2020/12/07 15:54:54;;;;;;;14.40;12.13;;;;;;;;;;4953772;28;20264;-77
2020/12/07 15:57:21;;;;;;;14.20;12.23;;;;;;;;;;4955539;28;20193;-77
2020/12/07 15:59:47;;;;;;;14.23;12.63;;;;;;;;;;4955444;28;20658;-77
2020/12/07 16:02:14;;;;;;;15.57;12.20;;;;;;;;;;4955642;28;20178;-76
2020/12/07 16:04:40;;;;;;;17.60;13.63;;;;;;;;;;4955560;28;20545;-77
2020/12/07 16:07:06;;;;;;;21.07;15.50;;;;;;;;;;4955275;28;20201;-76
2020/12/07 16:09:32;;;;;;;45.57;25.67;;;;;;;;;;4954323;29;20649;-77
2020/12/07 16:11:59;;;;;;;62.33;28.50;;;;;;;;;;4955515;28;20690;-78
2020/12/07 16:14:25;;;;;;;22.20;16.20;;;;;;;;;;4955753;28;20181;-76
2020/12/07 16:16:51;;;;;;;27.33;17.07;;;;;;;;;;4980307;23;20201;-78
2020/12/07 16:19:17;;;;;;;25.53;15.30;;;;;;;;;;4975482;28;20189;-79
2020/12/07 16:21:44;;;;;;;44.30;21.87;;;;;;;;;;4975780;28;20187;-79
2020/12/07 16:24:10;;;;;;;234.20;71.67;;;;;;;;;;4975636;28;20172;-78
2020/12/07 16:26:37;;;;;;;19.63;14.47;;;;;;;;;;4977963;28;20539;-80
2020/12/07 16:29:03;;;;;;;46.60;22.50;;;;;;;;;;4959281;28;20664;-79
2020/12/07 16:31:30;;;;;;;29.83;18.27;;;;;;;;;;4955477;29;20244;-80
2020/12/07 16:33:56;;;;;;;21.57;15.43;;;;;;;;;;4956938;29;20591;-78
2020/12/07 16:36:22;;;;;;;26.17;16.10;;;;;;;;;;4958248;28;20644;-79